메인 페이지
METAR-TAF:

METAR-TAF

공항 :

Rosecrans Memorial Airport

Saint Joseph, 미주리, 미국

위도: 39-46-05N, 경도: 094-54-33W, 고도: 251m

현재 날씨관측

예보는 24분 전, 21:53시(UTC)에 발표되었습니다.
11kt
온도 3°C
습도 75%
기압 1022 hPa
시정: 14.5km
고도 1600ft 상공 흐림

METAR: KSTJ 252153Z 35011KT 9SM OVC016 03/M01 A3018 RMK AO2 SLP224 T00331006

시각: 17:17 (22:17 UTC)

예보

예보는 4 시간 26분 전, 17:51시(UTC)에 발표되었습니다.
예보 대상 시간: 25일 18시부터 26일 18시까지 (UTC)
북동9kt
시정: 6.4km
고도 1000ft 상공 구름 많음
고도 2000ft 상공 흐림
약한이슬비
26일 0400시부터 (UTC)
북북동12kt
시정: 8.0km
고도 1000ft 상공 흐림
약한소나기, 박무
26일 0700시부터 (UTC)
12kt
시정: 4.8km
고도 1000ft 상공 흐림
약한비, 눈, 박무
26일 1000시부터 (UTC)
10kt
시정: 3.2km
고도 600ft 상공 흐림
약한눈, 박무

TAF: KSTJ 251751Z 2518/2618 04009KT 4SM -DZ BKN010 OVC020 FM260400 02012KT 5SM -SHRA BR OVC010 FM260700 01012KT 3SM -RASN BR OVC010 FM261000 36010KT 2SM -SN BR OVC006

4,000개 이상의 공항 관측 자료 및 예보 (METAR 및 TAF 보고).

지도상에서 검색 가능한 기상관측소가 노란 점과 빨간 점으로 표시되어 있습니다.

기상관측소 명을 보려면 표시 위로 마우스를 이동하세요.

날씨 관측과 예보를 보려면 클릭하세요.

지도 변경 : 확대하려면 엑스 표시가 있는 녹색 버튼, 축소하려면 빼기 표시가 있는 녹색 버튼, 다음 페이지의 지도를 보려면 녹색 화살표를 클릭하세요.


METAR-TAF: